Terminal Aerodrome Forecast
Issued by NWS

Home | Current Version | Previous Version | Graphics & Text | Print | Product List | Glossary On
Versions: 1 2 3 4 5 6 7 8 9 10 11 12 13 14
000
FTUS43 KICT 081012 AAA
TAFSLN
TAF AMD
KSLN 081012Z 0810/0906 21013KT P6SM SKC
     FM081300 31007KT P6SM BKN080
     FM081600 34017G22KT P6SM SKC
     FM090000 33005KT P6SM SKC=

USA.gov is the U.S. government's official web portal to all federal, state and local government web resources and services.